Kodiak, AK

10:31 AM AKDT on September 22, 2014 (GMT -0800)
Iliamna | Change Station
CLOSE
Current Station
Airport
Location: Iliamna,
Elevation: 161 ft
Nearby Weather Stations

Elev 161 ft 59.75 °N, 154.91 °W | Updated 38 minutes ago

Clear
Clear
41 °F
Feels Like 35 °F
N
10
Wind Variable Wind from North

Today
High -- | Low -- °F
--% Chance of Precip.
Yesterday
High -- | Low -- °F
Precip. -- in
7:55 AM 8:08 PM
Waning Crescent, 2% visible
Pressure 29.65 in
Visibility 10.0 miles
Clouds Clear
Windchill 35 °F
Dew Point 27 °F
Humidity 57%
Rainfall 0.00 in
Snow Depth 0 in , 0 in , 1 in
UV 1 out of 12
Pollen Not available.
Air Quality Not available.
Flu Activity Not available.
METAR PAIL 221753Z AUTO 35009KT 10SM CLR 05/M03 A2965 RMK AO2 SLP041 T00501028 10050 20017 51022 TSNO

More Conditions Fewer Conditions

Pressure 29.65 in
Visibility 10.0 miles
Clouds Clear
Windchill 35 °F
Dew Point 27 °F
Humidity 57%
Rainfall 0.00 in
Snow Depth 0 in , 0 in , 1 in
UV 1 out of 12
Pollen Not available.
Air Quality Not available.
Flu Activity Not available.
METAR PAIL 221753Z AUTO 35009KT 10SM CLR 05/M03 A2965 RMK AO2 SLP041 T00501028 10050 20017 51022 TSNO

More Conditions Fewer Conditions

10-Day Weather Forecast

Almanac

Astronomy

Sep. 22, 2014 Rise Set
Actual Time 7:55 AM AKDT 8:08 PM AKDT
Civil Twilight 7:16 AM AKDT 8:47 PM AKDT
Nautical Twilight 6:29 AM AKDT 9:33 PM AKDT
Astronomical Twilight 5:39 AM AKDT 10:23 PM AKDT
Moon 6:22 AM AKDT 7:26 PM AKDT
Length of Visible Light 13h 31m
Length of Day
12h 13m
Tomorrow will be 4m 56s shorter.
Waning Crescent, 2% of the Moon is Illuminated
Today
Waning Crescent
Sep 24
New
Oct 1
First Quarter
Oct 8
Full
Oct 15
Last Quarter

Today's Extremes

State Highs State Lows

Community

WunderPhotos

Upload Photos

1,755,507 photos uploaded!

WunderBlogs® & News

Nearby

Snow Depth

Station Depth Elevation
Fort Yukon 0 in 430 ft
Port Graham 0 in 300 ft
Pargon Creek 1 in 300 ft
Summit Creek 0 in 1400 ft
MF Bradley River 4 in 2300 ft

Earthquake Activity

City Distance Mag. Time & Date
No recent earthquake activity has been reported nearby.
Minimum magnitude displayed is 2.5.

Coastal Water Temperatures

Place Temperature
No Stations Reporting

Nearby Weather Stations